Wednesday, February 22, 2017, 12:29 PM EST
Back to Local

KCXY, Harrisburg Capital City

Location: New Cumberland, PA, United States Lat: 40.217
Local Time: 12:29 PM EST (17:29 GMT) Lon: -76.85
Time Zone: US/Eastern Elev: 347 ft

Show me the last for .
Show Decoded

2017-02-22 11:56 METAR KCXY 221656Z 00000KT 10SM FEW110 12/03 A2997 RMK AO2 SLP152 T01220033 =
2017-02-22 10:56 METAR KCXY 221556Z 10003KT 10SM FEW120 11/03 A3000 RMK AO2 SLP161 T01060033 =
2017-02-22 09:56 METAR KCXY 221456Z 11004KT 10SM CLR 08/03 A3002 RMK AO2 SLP168 T00830028 58001 =
2017-02-22 08:56 METAR KCXY 221356Z 10004KT 10SM BKN080 07/02 A3003 RMK AO2 SLP170 T00720022 =
2017-02-22 07:56 METAR KCXY 221256Z 10004KT 10SM OVC080 06/02 A3003 RMK AO2 SLP171 T00610022 =
2017-02-22 06:56 METAR KCXY 221156Z AUTO 11003KT 10SM OVC090 06/02 A3002 RMK AO2 SLP169 T00610017
                 10072 20056 56003 =
2017-02-22 05:56 METAR KCXY 221056Z AUTO 00000KT 10SM FEW100 06/02 A3003 RMK AO2 SLP170 T00610017
                 =
2017-02-22 04:56 METAR KCXY 220956Z AUTO 10003KT 10SM BKN090 06/02 A3003 RMK AO2 SLP170 T00610017
                 =
2017-02-21 15:56 METAR KCXY 212056Z 18006KT 10SM CLR 12/M04 A3016 RMK AO2 SLP216 T01171044 56026
                 =
2017-02-21 14:56 METAR KCXY 211956Z 17010KT 10SM CLR 11/M05 A3017 RMK AO2 SLP221 T01111050 =
2017-02-21 13:56 METAR KCXY 211856Z 16008G14KT 130V190 10SM CLR 12/M06 A3020 RMK AO2 SLP227
                 T01171056 =
2017-02-21 12:56 METAR KCXY 211756Z 16006KT 10SM CLR 10/M07 A3024 RMK AO2 SLP242 T01001067 10106
                 20011 58028 =

Support USWX by starting your Amazon purchase here.